Time;durP1;ratioP1;P1;durP2;ratioP2;P2;SDS_P1;SDS_P2;PMS_P1;PMS_P2;Temp;Humidity;BMP_temperature;BMP_pressure;BME280_temperature;BME280_humidity;BME280_pressure;Samples;Min_cycle;Max_cycle;Signal;HPM_P1;HPM_P2
2023/04/28 00:00:30;;;;;;;5.80;4.85;;;8.20;99.90;;;;;;5021078;28;20037;-33
2023/04/28 00:02:55;;;;;;;7.13;3.97;;;8.30;99.90;;;;;;5017371;28;20033;-34
2023/04/28 00:05:21;;;;;;;6.00;4.22;;;8.30;99.90;;;;;;5023277;28;20034;-33
2023/04/28 00:07:47;;;;;;;5.85;4.30;;;8.30;99.90;;;;;;5024454;28;20506;-32
2023/04/28 00:10:13;;;;;;;6.70;4.13;;;8.30;99.90;;;;;;5018987;28;20030;-33
2023/04/28 00:12:39;;;;;;;4.95;4.30;;;8.30;99.90;;;;;;5027726;28;20041;-33
2023/04/28 00:15:05;;;;;;;6.93;4.30;;;8.20;99.90;;;;;;5019772;28;20025;-35
2023/04/28 00:17:30;;;;;;;5.90;3.72;;;8.10;99.90;;;;;;5022115;28;20029;-33
2023/04/28 00:19:56;;;;;;;5.35;4.18;;;8.20;99.90;;;;;;5018900;28;20030;-33
2023/04/28 00:22:22;;;;;;;11.35;6.40;;;8.20;99.90;;;;;;5025177;28;20034;-33
2023/04/28 00:24:47;;;;;;;11.60;6.72;;;8.20;99.90;;;;;;5023259;28;20029;-33
2023/04/28 00:27:13;;;;;;;14.82;8.13;;;8.30;99.90;;;;;;5014981;28;20052;-34
2023/04/28 00:29:38;;;;;;;13.20;7.78;;;8.10;99.90;;;;;;5029741;28;20125;-33
2023/04/28 00:32:04;;;;;;;12.50;7.20;;;8.10;99.90;;;;;;5028965;28;20033;-33
2023/04/28 00:34:36;;;;;;;9.52;6.57;;;8.10;99.90;;;;;;5018474;28;20037;-33
2023/04/28 00:37:01;;;;;;;10.25;6.10;;;8.10;99.90;;;;;;5027866;28;20495;-32
2023/04/28 00:39:27;;;;;;;10.88;5.95;;;8.10;99.90;;;;;;5022511;28;20041;-32
2023/04/28 00:41:53;;;;;;;9.18;4.85;;;8.20;99.90;;;;;;5020759;28;20028;-32
2023/04/28 00:44:18;;;;;;;8.32;4.95;;;8.20;99.90;;;;;;5023887;28;20029;-32
2023/04/28 00:46:44;;;;;;;8.32;5.65;;;8.20;99.90;;;;;;5023656;28;20065;-32
2023/04/28 00:49:10;;;;;;;7.00;5.22;;;8.10;99.90;;;;;;5016847;28;20073;-34
2023/04/28 00:51:36;;;;;;;7.93;4.60;;;8.10;99.90;;;;;;5022112;28;20445;-33
2023/04/28 00:54:01;;;;;;;5.32;4.22;;;8.10;99.90;;;;;;5022514;28;20041;-33
2023/04/28 00:56:30;;;;;;;7.47;4.70;;;8.00;99.90;;;;;;5026630;28;20083;-33
2023/04/28 00:58:57;;;;;;;7.43;5.05;;;8.00;99.90;;;;;;5022941;28;20030;-33
2023/04/28 01:01:22;;;;;;;6.75;4.35;;;7.80;99.90;;;;;;5020540;28;21525;-33
2023/04/28 01:03:48;;;;;;;7.43;4.30;;;7.80;99.90;;;;;;5023328;28;20030;-33
2023/04/28 01:06:15;;;;;;;8.77;4.95;;;7.80;99.90;;;;;;5027518;28;20025;-34
2023/04/28 01:08:42;;;;;;;6.00;4.38;;;7.80;99.90;;;;;;5022135;28;20076;-33
2023/04/28 01:11:13;;;;;;;5.10;4.55;;;7.80;99.90;;;;;;5022015;28;20025;-33
2023/04/28 01:13:38;;;;;;;7.28;4.57;;;7.80;99.90;;;;;;5017608;28;20425;-32
2023/04/28 01:16:06;;;;;;;7.65;4.90;;;7.80;99.90;;;;;;5023126;28;20038;-32
2023/04/28 01:18:32;;;;;;;6.45;4.53;;;7.90;99.90;;;;;;5024942;28;20557;-33
2023/04/28 01:20:58;;;;;;;5.15;4.40;;;7.90;99.90;;;;;;5022554;28;20034;-34
2023/04/28 01:23:23;;;;;;;8.57;4.88;;;8.00;99.90;;;;;;5020783;28;20030;-33
2023/04/28 01:25:49;;;;;;;6.53;4.97;;;8.00;99.90;;;;;;5018489;28;20030;-33
2023/04/28 01:28:15;;;;;;;6.13;4.20;;;8.00;99.90;;;;;;5029642;28;20045;-32
2023/04/28 01:30:40;;;;;;;5.43;4.03;;;8.10;99.90;;;;;;5037684;28;20048;-33
2023/04/28 01:33:06;;;;;;;6.45;4.45;;;8.10;99.90;;;;;;5042734;28;20807;-33
2023/04/28 01:35:32;;;;;;;6.30;4.60;;;8.20;99.90;;;;;;5021910;28;20040;-33
2023/04/28 01:37:57;;;;;;;7.10;4.22;;;8.30;99.90;;;;;;5044610;28;20040;-32
2023/04/28 01:40:23;;;;;;;7.00;4.88;;;8.20;99.90;;;;;;5039067;28;20432;-33
2023/04/28 01:42:49;;;;;;;8.13;5.50;;;8.20;99.90;;;;;;5036542;28;20402;-33
2023/04/28 01:45:15;;;;;;;6.97;4.93;;;8.20;99.90;;;;;;5046276;28;20108;-33
2023/04/28 01:47:41;;;;;;;6.05;4.63;;;8.10;99.90;;;;;;5041145;28;20713;-32
2023/04/28 01:50:07;;;;;;;8.45;5.00;;;8.10;99.90;;;;;;5050761;28;20032;-32
2023/04/28 01:52:32;;;;;;;6.53;5.28;;;8.20;99.90;;;;;;5044173;28;20471;-32
2023/04/28 01:54:58;;;;;;;7.22;5.38;;;8.20;99.90;;;;;;5054919;28;20041;-33
2023/04/28 01:57:23;;;;;;;8.52;5.65;;;8.20;99.90;;;;;;5050402;28;20490;-34
2023/04/28 01:59:49;;;;;;;6.82;5.28;;;8.20;99.90;;;;;;5045677;28;20033;-33
2023/04/28 02:02:15;;;;;;;8.20;4.85;;;8.20;99.90;;;;;;5042543;28;20116;-34
2023/04/28 02:04:40;;;;;;;6.32;4.60;;;8.20;99.90;;;;;;5039171;28;20048;-35
2023/04/28 02:07:06;;;;;;;8.00;5.22;;;8.30;99.90;;;;;;5043953;28;20025;-33
2023/04/28 02:09:32;;;;;;;6.28;5.10;;;8.30;99.90;;;;;;5043725;28;20025;-34
2023/04/28 02:11:59;;;;;;;8.30;5.15;;;8.40;99.90;;;;;;5038174;28;20394;-34
2023/04/28 02:14:24;;;;;;;7.93;5.30;;;8.30;99.90;;;;;;5043888;28;20036;-32
2023/04/28 02:16:50;;;;;;;7.10;4.60;;;8.40;99.90;;;;;;5044820;28;20038;-33
2023/04/28 02:19:16;;;;;;;5.80;4.90;;;8.40;99.90;;;;;;5041894;28;20033;-32
2023/04/28 02:21:42;;;;;;;6.28;4.85;;;8.40;99.90;;;;;;5043062;28;20033;-34
2023/04/28 02:24:08;;;;;;;8.15;4.82;;;8.50;99.90;;;;;;5048247;28;20115;-33
2023/04/28 02:26:34;;;;;;;7.32;5.03;;;8.50;99.90;;;;;;5044470;28;20167;-33
2023/04/28 02:29:00;;;;;;;9.70;5.30;;;8.60;99.90;;;;;;5042224;28;20140;-33
2023/04/28 02:31:25;;;;;;;7.40;5.30;;;8.60;99.90;;;;;;5045646;28;20037;-32
2023/04/28 02:33:51;;;;;;;7.25;5.40;;;8.60;99.90;;;;;;5046621;28;20187;-33
2023/04/28 02:36:17;;;;;;;8.30;5.05;;;8.40;99.90;;;;;;5045182;28;20026;-34
2023/04/28 02:38:43;;;;;;;7.93;5.18;;;8.40;99.90;;;;;;5042900;28;20039;-34
2023/04/28 02:41:10;;;;;;;6.47;5.07;;;8.40;99.90;;;;;;5050252;28;20507;-33
2023/04/28 02:43:36;;;;;;;8.23;5.10;;;8.50;99.90;;;;;;5042964;28;20678;-33
2023/04/28 02:46:03;;;;;;;6.03;4.95;;;8.40;99.90;;;;;;5041722;28;20029;-32
2023/04/28 02:48:29;;;;;;;7.38;5.10;;;8.50;99.90;;;;;;5042054;28;20022;-32
2023/04/28 02:50:54;;;;;;;22.92;10.48;;;8.50;99.90;;;;;;5042320;28;20029;-33
2023/04/28 02:53:21;;;;;;;21.52;9.48;;;8.60;99.90;;;;;;5043295;28;20030;-32
2023/04/28 02:55:47;;;;;;;11.48;6.68;;;8.60;99.90;;;;;;5041655;28;20036;-33
2023/04/28 02:58:12;;;;;;;9.90;5.90;;;8.60;99.90;;;;;;5043256;28;20041;-33
2023/04/28 03:00:38;;;;;;;6.72;5.05;;;8.60;99.90;;;;;;5036493;28;20084;-33
2023/04/28 03:03:04;;;;;;;8.75;6.00;;;8.70;99.90;;;;;;5045362;28;20120;-34
2023/04/28 03:05:30;;;;;;;9.80;5.72;;;8.80;99.90;;;;;;5041517;28;20029;-32
2023/04/28 03:07:55;;;;;;;8.07;5.72;;;8.80;99.90;;;;;;5039986;28;20773;-33
2023/04/28 03:10:21;;;;;;;7.50;5.43;;;8.70;99.90;;;;;;5042737;28;20105;-33
2023/04/28 03:12:47;;;;;;;5.25;4.63;;;8.80;99.90;;;;;;5043152;28;20129;-32
2023/04/28 03:15:12;;;;;;;7.78;5.03;;;8.80;99.90;;;;;;5038190;28;20030;-32
2023/04/28 03:17:40;;;;;;;36.45;20.10;;;8.80;99.90;;;;;;5043103;28;20032;-32
2023/04/28 03:20:07;;;;;;;40.10;23.92;;;8.80;99.90;;;;;;5041810;28;20037;-33
2023/04/28 03:22:33;;;;;;;19.17;11.77;;;8.80;99.90;;;;;;5029349;28;20043;-33
2023/04/28 03:24:59;;;;;;;9.00;7.30;;;8.80;99.90;;;;;;5041868;28;20025;-34
2023/04/28 03:27:25;;;;;;;12.60;8.63;;;8.80;99.90;;;;;;5040935;28;20025;-33
2023/04/28 03:29:51;;;;;;;11.43;7.07;;;8.80;99.90;;;;;;5017142;28;20124;-34
2023/04/28 03:32:16;;;;;;;7.60;5.88;;;8.80;99.90;;;;;;5021527;28;20117;-33
2023/04/28 03:34:42;;;;;;;6.90;5.47;;;8.70;99.90;;;;;;5017185;28;20032;-32
2023/04/28 03:37:07;;;;;;;5.88;5.15;;;8.60;99.90;;;;;;5021236;28;20037;-33
2023/04/28 03:39:35;;;;;;;6.75;5.10;;;8.60;99.90;;;;;;5021053;28;20129;-33
2023/04/28 03:42:01;;;;;;;7.10;5.13;;;8.60;99.90;;;;;;5019077;28;20550;-33
2023/04/28 03:44:26;;;;;;;6.78;5.03;;;8.70;99.90;;;;;;5017500;28;20105;-32
2023/04/28 03:46:52;;;;;;;7.00;4.65;;;8.60;99.90;;;;;;5025812;28;20104;-32
2023/04/28 03:49:18;;;;;;;6.10;4.63;;;8.60;99.90;;;;;;5024040;28;20605;-32
2023/04/28 03:51:43;;;;;;;8.80;4.95;;;8.70;99.90;;;;;;5023345;28;20026;-33
2023/04/28 03:54:09;;;;;;;9.80;5.57;;;8.60;99.90;;;;;;5022979;28;20068;-33
2023/04/28 03:56:35;;;;;;;8.32;5.05;;;8.60;99.90;;;;;;5023306;28;20475;-34
2023/04/28 03:59:00;;;;;;;6.40;4.43;;;8.70;99.90;;;;;;5015437;28;20038;-32
2023/04/28 04:01:26;;;;;;;6.10;4.57;;;8.80;99.90;;;;;;5023674;28;20183;-33
2023/04/28 04:03:52;;;;;;;5.72;4.63;;;8.70;99.90;;;;;;5023971;28;20116;-32
2023/04/28 04:06:18;;;;;;;5.53;4.22;;;8.80;99.90;;;;;;5020315;28;20039;-32
2023/04/28 04:08:44;;;;;;;6.38;4.13;;;8.80;99.90;;;;;;5018952;28;20029;-33
2023/04/28 04:11:09;;;;;;;6.18;4.25;;;8.80;99.90;;;;;;5019615;28;20033;-32
2023/04/28 04:13:35;;;;;;;6.97;4.15;;;8.80;99.90;;;;;;5020380;28;20036;-31
2023/04/28 04:16:01;;;;;;;6.43;3.97;;;8.90;99.90;;;;;;5019299;28;20040;-32
2023/04/28 04:18:26;;;;;;;5.30;3.90;;;9.00;99.90;;;;;;5018089;28;20037;-32
2023/04/28 04:20:56;;;;;;;6.57;4.38;;;9.00;99.90;;;;;;5016624;28;20029;-33
2023/04/28 04:23:21;;;;;;;7.10;4.10;;;9.10;99.90;;;;;;5018255;28;20048;-32
2023/04/28 04:25:48;;;;;;;5.38;3.78;;;9.10;99.90;;;;;;5019183;28;20025;-32
2023/04/28 04:28:14;;;;;;;5.80;4.20;;;9.10;99.90;;;;;;5025558;28;20056;-32
2023/04/28 04:30:40;;;;;;;4.85;4.05;;;9.10;99.90;;;;;;5040740;28;20024;-32
2023/04/28 04:33:05;;;;;;;6.50;4.15;;;9.00;99.90;;;;;;5038089;28;20102;-34
2023/04/28 04:35:31;;;;;;;5.82;4.32;;;9.00;99.90;;;;;;5039401;28;20032;-33
2023/04/28 04:37:57;;;;;;;4.88;4.07;;;9.00;99.90;;;;;;5040950;28;20033;-34
2023/04/28 04:40:23;;;;;;;5.25;3.88;;;9.00;99.90;;;;;;5042233;28;20136;-32
2023/04/28 04:42:48;;;;;;;4.90;3.83;;;9.00;99.90;;;;;;5044880;28;20036;-33
2023/04/28 04:45:14;;;;;;;6.68;4.38;;;9.10;99.90;;;;;;5039677;28;20342;-32
2023/04/28 04:47:40;;;;;;;6.60;4.22;;;9.10;99.90;;;;;;5044287;28;20116;-32
2023/04/28 04:50:06;;;;;;;5.30;4.00;;;9.10;99.90;;;;;;5039997;28;20112;-32
2023/04/28 04:52:32;;;;;;;4.60;4.00;;;9.10;99.90;;;;;;5039283;28;20060;-33
2023/04/28 04:54:58;;;;;;;4.43;3.67;;;9.10;99.90;;;;;;5043429;28;20049;-32
2023/04/28 04:57:24;;;;;;;5.28;4.00;;;9.20;99.90;;;;;;5038697;28;20068;-32
2023/04/28 04:59:49;;;;;;;5.80;3.75;;;9.20;99.90;;;;;;5037179;28;20498;-32
2023/04/28 05:02:15;;;;;;;7.15;4.13;;;9.20;99.90;;;;;;5039220;28;20044;-33
2023/04/28 05:04:40;;;;;;;6.15;4.22;;;9.20;99.90;;;;;;5037739;28;20033;-32
2023/04/28 05:07:06;;;;;;;3.95;3.15;;;9.30;99.90;;;;;;5037783;28;20025;-32
2023/04/28 05:09:32;;;;;;;4.97;4.00;;;9.20;99.90;;;;;;5039988;28;20029;-32
2023/04/28 05:11:58;;;;;;;4.45;3.67;;;9.10;99.90;;;;;;5039461;28;20021;-31
2023/04/28 05:14:24;;;;;;;6.25;4.18;;;9.10;99.90;;;;;;5039420;28;20029;-33
2023/04/28 05:16:50;;;;;;;6.13;4.53;;;9.10;99.90;;;;;;5039061;28;20029;-34
2023/04/28 05:19:15;;;;;;;5.63;4.45;;;9.10;99.90;;;;;;5038341;28;20381;-33
2023/04/28 05:21:41;;;;;;;5.85;4.78;;;9.10;99.90;;;;;;5039399;28;20029;-34
2023/04/28 05:24:07;;;;;;;5.90;4.30;;;9.10;99.90;;;;;;5039652;28;20099;-33
2023/04/28 05:26:32;;;;;;;5.97;3.70;;;9.10;99.90;;;;;;5039922;28;20033;-32
2023/04/28 05:28:58;;;;;;;6.30;4.00;;;9.10;99.90;;;;;;5031870;28;20059;-32
2023/04/28 05:31:23;;;;;;;7.35;4.50;;;9.20;99.90;;;;;;5022478;28;20079;-32
2023/04/28 05:33:49;;;;;;;6.47;4.75;;;9.20;99.90;;;;;;5023690;28;20034;-34
2023/04/28 05:36:15;;;;;;;6.30;3.95;;;9.30;99.90;;;;;;5024912;28;20113;-31
2023/04/28 05:38:42;;;;;;;5.50;4.35;;;9.30;99.90;;;;;;5028878;28;20029;-32
2023/04/28 05:41:08;;;;;;;6.68;4.22;;;9.30;99.90;;;;;;5022958;28;20378;-34
2023/04/28 05:43:34;;;;;;;5.28;4.25;;;9.40;99.90;;;;;;5021645;28;20044;-32
2023/04/28 05:46:00;;;;;;;5.43;4.05;;;9.40;99.90;;;;;;5023537;28;21278;-32
2023/04/28 05:48:26;;;;;;;5.07;3.75;;;9.40;99.90;;;;;;5020683;28;20029;-32
2023/04/28 05:50:51;;;;;;;5.47;3.85;;;9.40;99.90;;;;;;5020163;28;20915;-35
2023/04/28 05:53:17;;;;;;;5.22;3.20;;;9.50;99.90;;;;;;5025486;28;20296;-33
2023/04/28 05:55:43;;;;;;;5.45;3.78;;;9.50;99.90;;;;;;5021345;28;20025;-31
2023/04/28 05:58:08;;;;;;;5.20;3.47;;;9.60;99.90;;;;;;5023287;28;20071;-32
2023/04/28 06:00:34;;;;;;;2.88;2.67;;;9.70;99.90;;;;;;5019297;28;20025;-32
2023/04/28 06:03:00;;;;;;;5.50;2.88;;;9.90;99.90;;;;;;5019525;28;20170;-33
2023/04/28 06:05:26;;;;;;;5.32;3.35;;;10.00;99.90;;;;;;5028387;28;20122;-33
2023/04/28 06:07:52;;;;;;;4.05;3.55;;;10.10;99.90;;;;;;5022092;28;20100;-33
2023/04/28 06:10:19;;;;;;;5.10;3.38;;;10.20;99.90;;;;;;5023773;28;20538;-32
2023/04/28 06:12:44;;;;;;;5.43;3.00;;;10.20;99.90;;;;;;5002091;28;20056;-32
2023/04/28 06:15:10;;;;;;;6.13;3.65;;;10.30;99.90;;;;;;5023312;28;20456;-34
2023/04/28 06:17:38;;;;;;;5.30;3.35;;;10.40;99.90;;;;;;5019721;28;20033;-33
2023/04/28 06:20:04;;;;;;;4.15;3.17;;;10.40;99.90;;;;;;5023466;28;20533;-32
2023/04/28 06:22:29;;;;;;;6.57;3.22;;;10.50;99.90;;;;;;5020344;28;20112;-32
2023/04/28 06:24:55;;;;;;;5.55;3.50;;;10.50;99.90;;;;;;5026558;28;20124;-31
2023/04/28 06:27:21;;;;;;;5.00;2.95;;;10.60;99.90;;;;;;5023411;28;20029;-33
2023/04/28 06:29:46;;;;;;;2.72;2.53;;;10.70;99.90;;;;;;5026396;28;20049;-31
2023/04/28 06:32:12;;;;;;;6.15;3.03;;;10.70;99.90;;;;;;5009715;28;20037;-32
2023/04/28 06:34:37;;;;;;;3.60;2.83;;;10.80;99.90;;;;;;5026305;28;20407;-32
2023/04/28 06:37:03;;;;;;;4.05;2.63;;;10.90;99.90;;;;;;5023434;28;20108;-32
2023/04/28 06:39:29;;;;;;;3.15;2.70;;;10.90;99.90;;;;;;5022846;28;20044;-31
2023/04/28 06:41:55;;;;;;;5.28;2.75;;;11.00;99.90;;;;;;5026354;28;20730;-32
2023/04/28 06:44:20;;;;;;;3.38;2.55;;;11.10;99.90;;;;;;5020926;28;20075;-32
2023/04/28 06:46:46;;;;;;;3.25;2.30;;;11.10;99.90;;;;;;5026678;28;20475;-34
2023/04/28 06:49:12;;;;;;;3.38;2.85;;;11.10;99.90;;;;;;5023416;28;20028;-34
2023/04/28 06:51:37;;;;;;;4.55;3.20;;;11.20;99.90;;;;;;5023450;28;21739;-32
2023/04/28 06:54:03;;;;;;;3.70;3.03;;;11.20;99.90;;;;;;5028340;28;20408;-33
2023/04/28 06:56:29;;;;;;;3.00;2.70;;;11.20;99.90;;;;;;5018570;28;20052;-32
2023/04/28 06:58:58;;;;;;;3.72;2.80;;;11.20;99.90;;;;;;5017542;28;20037;-32
2023/04/28 07:01:24;;;;;;;4.60;2.75;;;11.20;99.90;;;;;;5024151;28;20064;-33
2023/04/28 07:03:50;;;;;;;4.47;2.50;;;11.10;99.90;;;;;;5012262;28;20059;-32
2023/04/28 07:06:16;;;;;;;3.45;3.03;;;11.10;99.90;;;;;;5025964;28;20034;-32
2023/04/28 07:08:42;;;;;;;3.55;2.92;;;11.10;99.90;;;;;;5023159;28;20026;-33
2023/04/28 07:11:08;;;;;;;2.90;2.70;;;11.10;99.90;;;;;;5025953;28;20041;-33
2023/04/28 07:13:34;;;;;;;3.85;2.88;;;11.00;99.90;;;;;;5015833;28;20121;-32
2023/04/28 07:16:00;;;;;;;3.15;2.85;;;11.00;99.90;;;;;;5022740;28;20502;-32
2023/04/28 07:18:25;;;;;;;4.13;3.50;;;10.90;99.90;;;;;;5016924;28;20368;-33
2023/04/28 07:20:51;;;;;;;3.72;2.90;;;10.90;99.90;;;;;;5025142;28;20033;-32
2023/04/28 07:23:17;;;;;;;4.30;3.22;;;10.90;99.90;;;;;;5020141;28;20030;-33
2023/04/28 07:25:42;;;;;;;4.90;3.22;;;10.90;99.90;;;;;;5006398;28;20059;-32
2023/04/28 07:28:08;;;;;;;4.18;3.15;;;11.00;99.90;;;;;;5019021;28;20052;-32
2023/04/28 07:30:35;;;;;;;5.60;3.00;;;11.10;99.90;;;;;;5025553;28;20033;-36
2023/04/28 07:33:01;;;;;;;3.72;3.03;;;11.10;99.90;;;;;;5021797;28;20010;-31
2023/04/28 07:35:27;;;;;;;4.70;3.60;;;11.20;99.90;;;;;;5025785;28;20025;-32
2023/04/28 07:37:53;;;;;;;4.65;3.22;;;11.20;99.90;;;;;;5019535;28;20033;-31
2023/04/28 07:40:20;;;;;;;3.85;2.58;;;11.30;99.90;;;;;;5024431;28;20382;-32
2023/04/28 07:42:46;;;;;;;3.38;2.50;;;11.30;99.90;;;;;;5017311;28;20037;-32
2023/04/28 07:45:11;;;;;;;4.55;2.97;;;11.40;99.90;;;;;;5023183;28;20018;-33
2023/04/28 07:47:37;;;;;;;2.58;2.35;;;11.50;99.90;;;;;;5016389;28;20751;-34
2023/04/28 07:50:05;;;;;;;2.90;2.00;;;11.50;99.90;;;;;;5026897;28;20171;-31
2023/04/28 07:52:31;;;;;;;1.63;1.53;;;11.60;99.90;;;;;;5022674;28;20525;-32
2023/04/28 07:54:58;;;;;;;3.35;1.77;;;11.50;99.90;;;;;;5020816;28;20037;-33
2023/04/28 07:57:24;;;;;;;4.20;1.52;;;11.50;99.90;;;;;;5018886;28;20117;-33
2023/04/28 07:59:50;;;;;;;1.60;1.50;;;11.50;99.90;;;;;;5022738;28;20398;-33
2023/04/28 08:02:16;;;;;;;2.58;1.63;;;11.50;99.90;;;;;;5008945;28;20034;-32
2023/04/28 08:04:42;;;;;;;3.60;1.40;;;11.50;99.90;;;;;;5023834;28;20383;-31
2023/04/28 08:07:10;;;;;;;2.28;2.08;;;11.60;99.90;;;;;;5020348;28;20029;-32
2023/04/28 08:09:36;;;;;;;2.28;1.80;;;11.70;99.90;;;;;;5022585;28;20037;-32
2023/04/28 08:12:04;;;;;;;2.50;1.92;;;11.70;99.90;;;;;;5021422;28;20029;-32
2023/04/28 08:14:29;;;;;;;2.90;1.70;;;11.80;99.90;;;;;;5020601;28;20498;-32
2023/04/28 08:16:56;;;;;;;2.88;1.48;;;11.80;99.90;;;;;;5023387;28;20033;-33
2023/04/28 08:19:21;;;;;;;2.25;1.73;;;11.80;99.90;;;;;;5019806;28;20026;-35
2023/04/28 08:21:47;;;;;;;1.70;1.60;;;11.90;99.90;;;;;;5022449;28;20037;-32
2023/04/28 08:24:13;;;;;;;1.40;1.30;;;12.00;99.90;;;;;;5018355;28;20061;-33
2023/04/28 08:26:38;;;;;;;1.80;1.70;;;12.00;99.90;;;;;;5023744;28;20025;-35
2023/04/28 08:29:04;;;;;;;1.60;1.50;;;12.00;99.90;;;;;;5020405;28;20063;-33
2023/04/28 08:31:30;;;;;;;2.20;1.40;;;12.00;99.90;;;;;;5021571;28;20067;-33
2023/04/28 08:33:55;;;;;;;1.45;1.35;;;12.10;99.90;;;;;;5019318;28;20029;-32
2023/04/28 08:36:22;;;;;;;2.50;1.27;;;12.10;99.90;;;;;;5021040;28;20094;-33
2023/04/28 08:38:48;;;;;;;1.40;1.30;;;12.10;99.90;;;;;;5026404;28;20041;-33
2023/04/28 08:41:16;;;;;;;1.58;1.48;;;12.20;99.90;;;;;;5028526;28;20037;-32
2023/04/28 08:43:43;;;;;;;1.60;1.50;;;12.10;99.90;;;;;;5019452;28;20415;-32
2023/04/28 08:46:09;;;;;;;1.63;1.52;;;12.10;99.90;;;;;;5025826;28;20057;-33
2023/04/28 08:48:40;;;;;;;2.33;1.88;;;12.10;99.90;;;;;;5020526;28;20530;-32
2023/04/28 08:51:07;;;;;;;2.10;1.52;;;12.20;99.90;;;;;;5022535;28;20053;-32
2023/04/28 08:53:36;;;;;;;2.05;1.48;;;12.30;99.90;;;;;;5018056;28;20034;-31
2023/04/28 08:56:08;;;;;;;2.00;1.33;;;12.30;99.90;;;;;;5021804;28;20052;-33
2023/04/28 08:58:35;;;;;;;2.47;1.75;;;12.40;99.90;;;;;;5020435;28;20073;-32
2023/04/28 09:01:04;;;;;;;1.83;1.63;;;12.40;99.90;;;;;;5022153;28;20072;-32
2023/04/28 09:03:31;;;;;;;1.63;1.52;;;12.40;99.90;;;;;;5028643;28;20042;-34
2023/04/28 09:05:57;;;;;;;1.50;1.40;;;12.40;99.90;;;;;;5026503;28;20061;-33
2023/04/28 09:08:23;;;;;;;1.65;1.55;;;12.50;99.90;;;;;;5020104;28;20060;-34
2023/04/28 09:11:08;;;;;;;1.40;1.30;;;12.50;99.90;;;;;;5024114;28;20041;-34
2023/04/28 09:13:35;;;;;;;2.58;1.30;;;12.50;99.90;;;;;;5016510;28;20060;-32
2023/04/28 09:16:02;;;;;;;1.90;1.73;;;12.40;99.90;;;;;;5019385;28;20085;-33
2023/04/28 09:18:29;;;;;;;1.75;1.45;;;12.50;99.90;;;;;;5022313;28;20045;-32
2023/04/28 09:21:08;;;;;;;1.65;1.55;;;12.50;99.90;;;;;;5020022;28;20034;-32
2023/04/28 09:23:47;;;;;;;1.83;1.50;;;12.50;99.90;;;;;;5017740;28;20068;-33
2023/04/28 09:26:14;;;;;;;1.65;1.17;;;12.50;99.90;;;;;;5019955;28;20034;-32
2023/04/28 09:28:39;;;;;;;1.77;1.50;;;12.40;99.90;;;;;;5020855;28;20049;-32
2023/04/28 09:31:05;;;;;;;2.17;1.60;;;12.40;99.90;;;;;;5019249;28;20832;-32
2023/04/28 09:33:31;;;;;;;1.90;1.80;;;12.40;99.90;;;;;;5020537;28;20033;-33
2023/04/28 09:35:56;;;;;;;2.65;1.50;;;12.30;99.90;;;;;;5021467;28;20033;-37
2023/04/28 09:38:22;;;;;;;2.70;1.60;;;12.30;99.90;;;;;;5024506;28;20034;-33
2023/04/28 09:41:00;;;;;;;1.85;1.67;;;12.30;99.90;;;;;;5016780;28;20038;-32
2023/04/28 09:43:27;;;;;;;1.63;1.40;;;12.30;99.90;;;;;;5022035;28;20026;-32
2023/04/28 09:45:58;;;;;;;2.03;1.70;;;12.30;99.90;;;;;;5013627;28;20065;-32
2023/04/28 09:48:35;;;;;;;1.85;1.42;;;12.40;99.90;;;;;;5022649;28;20014;-32
2023/04/28 09:51:03;;;;;;;2.03;1.50;;;12.40;99.90;;;;;;5022845;28;20112;-33
2023/04/28 09:53:29;;;;;;;1.90;1.45;;;12.40;99.90;;;;;;5021967;28;20037;-32
2023/04/28 09:55:57;;;;;;;2.53;1.90;;;12.40;99.90;;;;;;5020681;28;20602;-31
2023/04/28 09:58:24;;;;;;;1.65;1.55;;;12.40;99.90;;;;;;5020804;28;20406;-33
2023/04/28 10:00:57;;;;;;;2.17;1.60;;;12.40;99.90;;;;;;5023394;28;20129;-33
2023/04/28 10:03:28;;;;;;;1.70;1.60;;;12.30;99.90;;;;;;5024366;28;20055;-31
2023/04/28 10:05:55;;;;;;;2.80;1.48;;;12.40;99.90;;;;;;5028033;28;20096;-32
2023/04/28 10:08:21;;;;;;;2.33;1.80;;;12.40;99.90;;;;;;5020651;28;20480;-32
2023/04/28 10:10:48;;;;;;;1.70;1.48;;;12.40;99.90;;;;;;5026001;28;20033;-32
2023/04/28 10:13:21;;;;;;;1.85;1.45;;;12.40;99.90;;;;;;5022033;28;20435;-33
2023/04/28 10:15:47;;;;;;;2.88;1.42;;;12.50;99.90;;;;;;5020614;28;20040;-32
2023/04/28 10:18:14;;;;;;;1.95;1.70;;;12.50;99.90;;;;;;5021294;28;20033;-32
2023/04/28 10:20:44;;;;;;;1.73;1.60;;;12.50;99.90;;;;;;5027223;28;20041;-33
2023/04/28 10:23:30;;;;;;;1.40;1.30;;;12.60;99.90;;;;;;5023706;28;20034;-32
2023/04/28 10:25:58;;;;;;;1.70;1.60;;;12.60;99.90;;;;;;5019091;28;20120;-32
2023/04/28 10:28:25;;;;;;;2.38;1.65;;;12.60;99.90;;;;;;5030643;28;20080;-32
2023/04/28 10:31:10;;;;;;;1.63;1.52;;;12.60;99.90;;;;;;5041178;28;20075;-33
2023/04/28 10:33:37;;;;;;;2.15;1.48;;;12.60;99.90;;;;;;5040609;28;20021;-33
2023/04/28 10:36:04;;;;;;;1.70;1.30;;;12.70;99.90;;;;;;5047953;28;20029;-31
2023/04/28 10:38:29;;;;;;;1.27;1.23;;;12.70;99.90;;;;;;5042065;28;20033;-32
2023/04/28 10:41:01;;;;;;;1.33;1.23;;;12.70;99.90;;;;;;5045565;28;20480;-32
2023/04/28 10:43:36;;;;;;;2.20;1.40;;;12.80;99.90;;;;;;5048680;28;20043;-35
2023/04/28 10:46:05;;;;;;;2.22;1.50;;;12.70;99.90;;;;;;5047039;28;20100;-34
2023/04/28 10:48:33;;;;;;;1.98;1.77;;;12.70;99.90;;;;;;5029477;28;20583;-31
2023/04/28 10:51:02;;;;;;;1.70;1.58;;;12.70;99.90;;;;;;5038642;28;20051;-32
2023/04/28 10:53:49;;;;;;;1.80;1.38;;;12.70;99.90;;;;;;5043728;28;20025;-32
2023/04/28 10:56:26;;;;;;;2.10;1.70;;;12.70;99.90;;;;;;5030555;28;20041;-31
2023/04/28 10:58:58;;;;;;;2.03;1.65;;;12.80;99.90;;;;;;5050884;28;20053;-32
2023/04/28 11:01:30;;;;;;;2.13;1.50;;;12.80;99.90;;;;;;5040127;28;20029;-32
2023/04/28 11:06:33;;;;;;;1.40;1.30;;;12.80;99.90;;;;;;5042994;28;20017;-32
2023/04/28 11:09:02;;;;;;;1.70;1.60;;;12.80;99.90;;;;;;5022545;28;20049;-32
2023/04/28 11:11:35;;;;;;;2.03;1.30;;;12.80;99.90;;;;;;5040572;28;20543;-33
2023/04/28 11:14:19;;;;;;;1.60;1.40;;;12.80;99.90;;;;;;5043891;28;20030;-33
2023/04/28 11:17:05;;;;;;;1.55;1.45;;;12.80;99.90;;;;;;5041822;28;20037;-32
2023/04/28 11:19:32;;;;;;;1.80;1.70;;;12.80;99.90;;;;;;5043961;28;20021;-32
2023/04/28 11:22:18;;;;;;;2.70;1.40;;;12.80;99.90;;;;;;5040035;28;20075;-32
2023/04/28 11:25:09;;;;;;;2.35;1.60;;;12.80;99.90;;;;;;5040491;28;20033;-33
2023/04/28 11:27:36;;;;;;;1.70;1.58;;;12.90;99.90;;;;;;5043549;28;20115;-31
2023/04/28 11:30:03;;;;;;;1.50;1.40;;;13.10;99.90;;;;;;5043920;28;20108;-32
2023/04/28 11:32:33;;;;;;;0.97;0.97;;;13.20;99.90;;;;;;5030774;28;20033;-32
2023/04/28 11:34:59;;;;;;;2.30;1.38;;;13.20;99.90;;;;;;5042270;28;20033;-32
2023/04/28 11:37:26;;;;;;;1.70;1.20;;;13.20;99.90;;;;;;5041567;28;20100;-32
2023/04/28 11:39:52;;;;;;;1.38;1.27;;;13.30;99.90;;;;;;5025726;28;20075;-34
2023/04/28 11:42:17;;;;;;;1.00;1.00;;;13.50;99.90;;;;;;5042211;28;20061;-35
2023/04/28 11:44:51;;;;;;;1.10;1.00;;;13.60;99.90;;;;;;5045014;28;20064;-33
2023/04/28 11:47:28;;;;;;;1.02;1.02;;;13.60;99.90;;;;;;5045976;28;20395;-33
2023/04/28 11:49:54;;;;;;;1.30;1.20;;;13.70;99.90;;;;;;5043235;28;20018;-33
2023/04/28 11:52:20;;;;;;;1.45;1.35;;;13.70;99.90;;;;;;5041886;28;20690;-31
2023/04/28 11:54:57;;;;;;;1.80;1.30;;;13.70;99.90;;;;;;5044606;28;20037;-31
2023/04/28 11:57:23;;;;;;;1.70;1.30;;;13.70;99.90;;;;;;5042638;28;20053;-32
2023/04/28 11:59:49;;;;;;;1.42;1.33;;;13.70;99.90;;;;;;5023004;28;20044;-32
2023/04/28 12:02:16;;;;;;;1.35;1.23;;;13.80;99.90;;;;;;5042032;28;20059;-32
2023/04/28 12:04:43;;;;;;;1.42;1.33;;;13.90;99.90;;;;;;5041576;28;20113;-34
2023/04/28 12:07:16;;;;;;;1.20;1.10;;;14.10;99.90;;;;;;5039806;28;20036;-32
2023/04/28 12:09:44;;;;;;;2.30;2.13;;;14.20;99.90;;;;;;5045026;28;20017;-33
2023/04/28 12:12:12;;;;;;;1.80;1.17;;;14.20;99.90;;;;;;5041359;28;20024;-32
2023/04/28 12:15:01;;;;;;;1.88;1.50;;;14.50;99.90;;;;;;5039913;28;20386;-32
2023/04/28 12:17:29;;;;;;;3.30;1.45;;;14.80;99.90;;;;;;5040893;28;20092;-34
2023/04/28 12:19:56;;;;;;;1.02;0.95;;;14.90;99.90;;;;;;5039623;28;20032;-32
2023/04/28 12:22:22;;;;;;;1.50;1.40;;;14.80;99.90;;;;;;5043279;28;20044;-33
2023/04/28 12:25:09;;;;;;;1.52;1.42;;;14.70;99.90;;;;;;5031240;28;20569;-32
2023/04/28 12:27:39;;;;;;;1.45;1.35;;;14.60;99.90;;;;;;5038890;28;20029;-32
2023/04/28 12:30:19;;;;;;;1.90;1.70;;;14.40;99.90;;;;;;5045505;28;20029;-33
2023/04/28 12:32:45;;;;;;;2.15;1.73;;;14.30;99.90;;;;;;5043709;28;20033;-33
2023/04/28 12:35:12;;;;;;;3.05;1.90;;;14.30;99.90;;;;;;5042196;28;20083;-33
2023/04/28 12:37:38;;;;;;;2.03;1.65;;;14.20;99.90;;;;;;5040588;28;21441;-33
2023/04/28 12:40:05;;;;;;;1.70;1.60;;;14.30;99.90;;;;;;5024991;28;20056;-32
2023/04/28 12:42:31;;;;;;;1.70;1.60;;;14.20;99.90;;;;;;5038251;28;20513;-34
2023/04/28 12:44:57;;;;;;;1.75;1.65;;;14.30;99.90;;;;;;5045273;28;20079;-33
2023/04/28 12:47:23;;;;;;;1.67;1.58;;;14.30;99.90;;;;;;5043450;28;20025;-34
2023/04/28 12:49:51;;;;;;;1.45;1.35;;;14.20;99.90;;;;;;5046269;28;20486;-33
2023/04/28 12:52:18;;;;;;;3.33;1.55;;;14.30;99.90;;;;;;5030500;28;20044;-32